sensor_id;sensor_type;location;lat;lon;timestamp;P1;durP1;ratioP1;P2;durP2;ratioP2
62419;SDS011;48460;51.616;5.426;2023-03-14T00:00:54;8.05;;;2.63;;
62419;SDS011;48460;51.616;5.426;2023-03-14T00:03:25;15.27;;;2.80;;
62419;SDS011;48460;51.616;5.426;2023-03-14T00:06:01;11.35;;;2.60;;
62419;SDS011;48460;51.616;5.426;2023-03-14T00:08:46;9.55;;;2.33;;
62419;SDS011;48460;51.616;5.426;2023-03-14T00:11:24;7.47;;;2.40;;
62419;SDS011;48460;51.616;5.426;2023-03-14T00:14:01;11.40;;;2.80;;
62419;SDS011;48460;51.616;5.426;2023-03-14T00:16:31;11.98;;;2.75;;
62419;SDS011;48460;51.616;5.426;2023-03-14T00:19:07;11.90;;;2.50;;
62419;SDS011;48460;51.616;5.426;2023-03-14T00:21:45;9.77;;;2.65;;
62419;SDS011;48460;51.616;5.426;2023-03-14T00:24:15;10.88;;;2.55;;
62419;SDS011;48460;51.616;5.426;2023-03-14T00:26:40;12.15;;;1.98;;
62419;SDS011;48460;51.616;5.426;2023-03-14T00:29:13;10.73;;;2.42;;
62419;SDS011;48460;51.616;5.426;2023-03-14T00:31:42;10.88;;;2.60;;
62419;SDS011;48460;51.616;5.426;2023-03-14T00:34:09;12.65;;;2.60;;
62419;SDS011;48460;51.616;5.426;2023-03-14T00:36:40;10.73;;;2.60;;
62419;SDS011;48460;51.616;5.426;2023-03-14T00:39:07;8.48;;;1.98;;
62419;SDS011;48460;51.616;5.426;2023-03-14T00:41:43;10.73;;;2.45;;
62419;SDS011;48460;51.616;5.426;2023-03-14T00:44:20;11.15;;;2.47;;
62419;SDS011;48460;51.616;5.426;2023-03-14T00:46:50;11.48;;;2.42;;
62419;SDS011;48460;51.616;5.426;2023-03-14T00:49:28;5.95;;;1.70;;
62419;SDS011;48460;51.616;5.426;2023-03-14T00:52:16;9.48;;;1.70;;
62419;SDS011;48460;51.616;5.426;2023-03-14T00:54:47;8.88;;;2.13;;
62419;SDS011;48460;51.616;5.426;2023-03-14T00:57:13;12.45;;;2.60;;
62419;SDS011;48460;51.616;5.426;2023-03-14T00:59:44;12.40;;;2.70;;
62419;SDS011;48460;51.616;5.426;2023-03-14T01:02:33;11.50;;;2.17;;
62419;SDS011;48460;51.616;5.426;2023-03-14T01:05:06;8.77;;;2.33;;
62419;SDS011;48460;51.616;5.426;2023-03-14T01:07:58;13.50;;;2.58;;
62419;SDS011;48460;51.616;5.426;2023-03-14T01:10:45;12.73;;;2.05;;
62419;SDS011;48460;51.616;5.426;2023-03-14T01:13:15;11.38;;;2.80;;
62419;SDS011;48460;51.616;5.426;2023-03-14T01:15:45;17.95;;;2.20;;
62419;SDS011;48460;51.616;5.426;2023-03-14T01:18:19;9.93;;;1.92;;
62419;SDS011;48460;51.616;5.426;2023-03-14T01:20:46;7.50;;;2.08;;
62419;SDS011;48460;51.616;5.426;2023-03-14T01:23:25;9.65;;;2.15;;
62419;SDS011;48460;51.616;5.426;2023-03-14T01:25:53;10.57;;;2.08;;
62419;SDS011;48460;51.616;5.426;2023-03-14T01:28:22;9.38;;;1.88;;
62419;SDS011;48460;51.616;5.426;2023-03-14T01:31:10;11.15;;;1.75;;
62419;SDS011;48460;51.616;5.426;2023-03-14T01:33:42;7.43;;;1.90;;
62419;SDS011;48460;51.616;5.426;2023-03-14T01:36:33;12.63;;;2.55;;
62419;SDS011;48460;51.616;5.426;2023-03-14T01:39:13;10.30;;;2.00;;
62419;SDS011;48460;51.616;5.426;2023-03-14T01:41:46;7.78;;;2.00;;
62419;SDS011;48460;51.616;5.426;2023-03-14T01:47:23;6.75;;;2.03;;
62419;SDS011;48460;51.616;5.426;2023-03-14T01:50:09;8.75;;;2.20;;
62419;SDS011;48460;51.616;5.426;2023-03-14T01:53:09;11.20;;;1.92;;
62419;SDS011;48460;51.616;5.426;2023-03-14T01:55:56;6.72;;;2.08;;
62419;SDS011;48460;51.616;5.426;2023-03-14T01:58:28;11.55;;;2.22;;
62419;SDS011;48460;51.616;5.426;2023-03-14T02:01:11;9.27;;;2.00;;
62419;SDS011;48460;51.616;5.426;2023-03-14T02:03:47;6.65;;;1.90;;
62419;SDS011;48460;51.616;5.426;2023-03-14T02:06:23;10.30;;;1.95;;
62419;SDS011;48460;51.616;5.426;2023-03-14T02:08:52;8.82;;;1.95;;
62419;SDS011;48460;51.616;5.426;2023-03-14T02:11:32;10.93;;;2.83;;
62419;SDS011;48460;51.616;5.426;2023-03-14T02:14:08;9.77;;;2.80;;
62419;SDS011;48460;51.616;5.426;2023-03-14T02:17:00;11.38;;;2.47;;
62419;SDS011;48460;51.616;5.426;2023-03-14T02:22:17;17.90;;;2.53;;
62419;SDS011;48460;51.616;5.426;2023-03-14T02:28:06;13.57;;;2.47;;
62419;SDS011;48460;51.616;5.426;2023-03-14T02:30:58;11.45;;;2.63;;
62419;SDS011;48460;51.616;5.426;2023-03-14T02:33:48;11.73;;;2.60;;
62419;SDS011;48460;51.616;5.426;2023-03-14T02:36:16;10.38;;;2.22;;
62419;SDS011;48460;51.616;5.426;2023-03-14T02:38:55;15.85;;;2.80;;
62419;SDS011;48460;51.616;5.426;2023-03-14T02:41:30;14.07;;;2.90;;
62419;SDS011;48460;51.616;5.426;2023-03-14T02:44:15;13.55;;;2.80;;
62419;SDS011;48460;51.616;5.426;2023-03-14T02:46:53;13.73;;;2.83;;
62419;SDS011;48460;51.616;5.426;2023-03-14T02:49:40;10.52;;;2.63;;
62419;SDS011;48460;51.616;5.426;2023-03-14T02:52:06;14.05;;;2.47;;
62419;SDS011;48460;51.616;5.426;2023-03-14T02:54:47;13.43;;;2.97;;
62419;SDS011;48460;51.616;5.426;2023-03-14T02:57:36;10.70;;;2.78;;
62419;SDS011;48460;51.616;5.426;2023-03-14T03:00:11;14.20;;;2.65;;
62419;SDS011;48460;51.616;5.426;2023-03-14T03:02:47;10.93;;;2.50;;
62419;SDS011;48460;51.616;5.426;2023-03-14T03:05:42;13.13;;;2.60;;
62419;SDS011;48460;51.616;5.426;2023-03-14T03:08:15;11.87;;;2.47;;
62419;SDS011;48460;51.616;5.426;2023-03-14T03:13:53;12.48;;;2.97;;
62419;SDS011;48460;51.616;5.426;2023-03-14T03:16:41;7.85;;;2.33;;
62419;SDS011;48460;51.616;5.426;2023-03-14T03:19:22;10.90;;;2.35;;
62419;SDS011;48460;51.616;5.426;2023-03-14T03:21:56;12.50;;;2.30;;
62419;SDS011;48460;51.616;5.426;2023-03-14T03:24:26;11.70;;;2.30;;
62419;SDS011;48460;51.616;5.426;2023-03-14T03:27:06;15.05;;;2.85;;
62419;SDS011;48460;51.616;5.426;2023-03-14T03:29:52;12.20;;;2.25;;
62419;SDS011;48460;51.616;5.426;2023-03-14T03:32:30;10.43;;;2.13;;
62419;SDS011;48460;51.616;5.426;2023-03-14T03:35:07;8.45;;;2.05;;
62419;SDS011;48460;51.616;5.426;2023-03-14T03:40:52;16.45;;;2.55;;
62419;SDS011;48460;51.616;5.426;2023-03-14T03:43:39;11.52;;;2.72;;
62419;SDS011;48460;51.616;5.426;2023-03-14T03:46:22;11.57;;;2.50;;
62419;SDS011;48460;51.616;5.426;2023-03-14T03:49:21;12.70;;;2.47;;
62419;SDS011;48460;51.616;5.426;2023-03-14T03:52:06;15.05;;;2.60;;
62419;SDS011;48460;51.616;5.426;2023-03-14T03:54:37;10.55;;;2.50;;
62419;SDS011;48460;51.616;5.426;2023-03-14T03:57:07;6.85;;;2.35;;
62419;SDS011;48460;51.616;5.426;2023-03-14T03:59:46;10.35;;;2.58;;
62419;SDS011;48460;51.616;5.426;2023-03-14T04:02:31;8.88;;;2.17;;
62419;SDS011;48460;51.616;5.426;2023-03-14T04:05:07;8.43;;;2.22;;
62419;SDS011;48460;51.616;5.426;2023-03-14T04:07:43;7.15;;;1.88;;
62419;SDS011;48460;51.616;5.426;2023-03-14T04:10:33;12.85;;;1.98;;
62419;SDS011;48460;51.616;5.426;2023-03-14T04:13:13;7.40;;;2.20;;
62419;SDS011;48460;51.616;5.426;2023-03-14T04:18:17;11.77;;;1.77;;
62419;SDS011;48460;51.616;5.426;2023-03-14T04:21:09;8.98;;;1.77;;
62419;SDS011;48460;51.616;5.426;2023-03-14T04:23:46;16.52;;;2.25;;
62419;SDS011;48460;51.616;5.426;2023-03-14T04:26:19;7.07;;;1.83;;
62419;SDS011;48460;51.616;5.426;2023-03-14T04:29:08;7.25;;;1.88;;
62419;SDS011;48460;51.616;5.426;2023-03-14T04:31:49;7.40;;;1.90;;
62419;SDS011;48460;51.616;5.426;2023-03-14T04:34:27;8.18;;;1.83;;
62419;SDS011;48460;51.616;5.426;2023-03-14T04:36:58;5.60;;;1.63;;
62419;SDS011;48460;51.616;5.426;2023-03-14T04:39:24;10.70;;;2.05;;
62419;SDS011;48460;51.616;5.426;2023-03-14T04:42:00;7.80;;;2.13;;
62419;SDS011;48460;51.616;5.426;2023-03-14T04:44:43;7.15;;;1.95;;
62419;SDS011;48460;51.616;5.426;2023-03-14T04:47:21;7.25;;;1.85;;
62419;SDS011;48460;51.616;5.426;2023-03-14T04:50:00;12.45;;;2.47;;
62419;SDS011;48460;51.616;5.426;2023-03-14T04:52:47;7.35;;;1.90;;
62419;SDS011;48460;51.616;5.426;2023-03-14T04:55:24;10.45;;;2.30;;
62419;SDS011;48460;51.616;5.426;2023-03-14T04:58:05;9.82;;;2.00;;
62419;SDS011;48460;51.616;5.426;2023-03-14T05:01:02;11.60;;;2.38;;
62419;SDS011;48460;51.616;5.426;2023-03-14T05:03:56;9.75;;;2.22;;
62419;SDS011;48460;51.616;5.426;2023-03-14T05:06:38;9.93;;;3.08;;
62419;SDS011;48460;51.616;5.426;2023-03-14T05:09:14;9.52;;;2.20;;
62419;SDS011;48460;51.616;5.426;2023-03-14T05:11:54;4.97;;;2.25;;
62419;SDS011;48460;51.616;5.426;2023-03-14T05:14:25;5.53;;;2.03;;
62419;SDS011;48460;51.616;5.426;2023-03-14T05:17:12;6.63;;;2.08;;
62419;SDS011;48460;51.616;5.426;2023-03-14T05:19:41;3.92;;;2.03;;
62419;SDS011;48460;51.616;5.426;2023-03-14T05:22:43;6.35;;;2.20;;
62419;SDS011;48460;51.616;5.426;2023-03-14T05:25:14;5.32;;;2.15;;
62419;SDS011;48460;51.616;5.426;2023-03-14T05:27:55;9.32;;;2.13;;
62419;SDS011;48460;51.616;5.426;2023-03-14T05:30:34;7.43;;;2.45;;
62419;SDS011;48460;51.616;5.426;2023-03-14T05:33:14;8.77;;;2.70;;
62419;SDS011;48460;51.616;5.426;2023-03-14T05:35:52;7.90;;;2.67;;
62419;SDS011;48460;51.616;5.426;2023-03-14T05:38:49;7.43;;;2.20;;
62419;SDS011;48460;51.616;5.426;2023-03-14T05:41:46;6.53;;;2.25;;
62419;SDS011;48460;51.616;5.426;2023-03-14T05:44:29;7.13;;;2.30;;
62419;SDS011;48460;51.616;5.426;2023-03-14T05:47:30;6.68;;;2.40;;
62419;SDS011;48460;51.616;5.426;2023-03-14T05:50:04;8.60;;;2.78;;
62419;SDS011;48460;51.616;5.426;2023-03-14T05:52:37;7.82;;;2.90;;
62419;SDS011;48460;51.616;5.426;2023-03-14T05:55:29;9.35;;;3.20;;
62419;SDS011;48460;51.616;5.426;2023-03-14T05:57:57;5.72;;;2.47;;
62419;SDS011;48460;51.616;5.426;2023-03-14T06:04:02;7.18;;;3.08;;
62419;SDS011;48460;51.616;5.426;2023-03-14T06:06:41;6.00;;;2.58;;
62419;SDS011;48460;51.616;5.426;2023-03-14T06:09:10;7.40;;;3.10;;
62419;SDS011;48460;51.616;5.426;2023-03-14T06:11:38;7.47;;;3.10;;
62419;SDS011;48460;51.616;5.426;2023-03-14T06:14:39;9.25;;;3.25;;
62419;SDS011;48460;51.616;5.426;2023-03-14T06:17:24;9.43;;;3.33;;
62419;SDS011;48460;51.616;5.426;2023-03-14T06:19:57;6.65;;;3.13;;
62419;SDS011;48460;51.616;5.426;2023-03-14T06:22:35;5.95;;;3.33;;
62419;SDS011;48460;51.616;5.426;2023-03-14T06:25:14;8.82;;;3.22;;
62419;SDS011;48460;51.616;5.426;2023-03-14T06:30:48;6.28;;;2.88;;
62419;SDS011;48460;51.616;5.426;2023-03-14T06:33:16;6.57;;;3.60;;
62419;SDS011;48460;51.616;5.426;2023-03-14T06:36:25;5.88;;;3.17;;
62419;SDS011;48460;51.616;5.426;2023-03-14T06:39:01;7.22;;;3.50;;
62419;SDS011;48460;51.616;5.426;2023-03-14T06:41:34;9.90;;;4.00;;
62419;SDS011;48460;51.616;5.426;2023-03-14T06:44:06;8.57;;;3.78;;
62419;SDS011;48460;51.616;5.426;2023-03-14T06:46:52;7.88;;;4.15;;
62419;SDS011;48460;51.616;5.426;2023-03-14T06:49:34;8.65;;;4.10;;
62419;SDS011;48460;51.616;5.426;2023-03-14T06:52:11;7.75;;;4.00;;
62419;SDS011;48460;51.616;5.426;2023-03-14T06:58:34;9.85;;;5.68;;
62419;SDS011;48460;51.616;5.426;2023-03-14T07:01:20;13.20;;;5.18;;
62419;SDS011;48460;51.616;5.426;2023-03-14T07:04:00;10.27;;;6.05;;
62419;SDS011;48460;51.616;5.426;2023-03-14T07:06:43;10.90;;;5.53;;
62419;SDS011;48460;51.616;5.426;2023-03-14T07:09:15;12.05;;;6.40;;
62419;SDS011;48460;51.616;5.426;2023-03-14T07:11:42;12.20;;;6.35;;
62419;SDS011;48460;51.616;5.426;2023-03-14T07:14:10;12.63;;;6.25;;
62419;SDS011;48460;51.616;5.426;2023-03-14T07:16:36;13.07;;;6.80;;
62419;SDS011;48460;51.616;5.426;2023-03-14T07:19:02;18.35;;;6.72;;
62419;SDS011;48460;51.616;5.426;2023-03-14T07:21:28;7.93;;;3.70;;
62419;SDS011;48460;51.616;5.426;2023-03-14T07:23:56;4.07;;;2.72;;
62419;SDS011;48460;51.616;5.426;2023-03-14T07:26:26;3.42;;;1.80;;
62419;SDS011;48460;51.616;5.426;2023-03-14T07:28:52;3.50;;;1.70;;
62419;SDS011;48460;51.616;5.426;2023-03-14T07:31:18;5.43;;;1.30;;
62419;SDS011;48460;51.616;5.426;2023-03-14T07:33:45;2.70;;;1.05;;
62419;SDS011;48460;51.616;5.426;2023-03-14T07:36:13;3.17;;;1.20;;
62419;SDS011;48460;51.616;5.426;2023-03-14T07:38:50;3.20;;;1.35;;
62419;SDS011;48460;51.616;5.426;2023-03-14T07:41:32;1.80;;;0.98;;
62419;SDS011;48460;51.616;5.426;2023-03-14T07:44:14;6.20;;;1.63;;
62419;SDS011;48460;51.616;5.426;2023-03-14T07:46:42;2.95;;;1.40;;
62419;SDS011;48460;51.616;5.426;2023-03-14T07:49:08;2.72;;;1.48;;
62419;SDS011;48460;51.616;5.426;2023-03-14T07:51:36;4.40;;;1.73;;
62419;SDS011;48460;51.616;5.426;2023-03-14T07:54:09;3.30;;;1.90;;
62419;SDS011;48460;51.616;5.426;2023-03-14T07:56:38;2.58;;;1.70;;
62419;SDS011;48460;51.616;5.426;2023-03-14T07:59:13;6.72;;;2.30;;
62419;SDS011;48460;51.616;5.426;2023-03-14T08:01:48;5.82;;;2.05;;
62419;SDS011;48460;51.616;5.426;2023-03-14T08:04:37;7.60;;;2.10;;
62419;SDS011;48460;51.616;5.426;2023-03-14T08:07:06;4.47;;;1.83;;
62419;SDS011;48460;51.616;5.426;2023-03-14T08:09:34;4.20;;;2.22;;
62419;SDS011;48460;51.616;5.426;2023-03-14T08:12:04;3.90;;;2.25;;
62419;SDS011;48460;51.616;5.426;2023-03-14T08:14:46;3.15;;;1.45;;
62419;SDS011;48460;51.616;5.426;2023-03-14T08:17:15;2.95;;;1.83;;
62419;SDS011;48460;51.616;5.426;2023-03-14T08:19:41;7.15;;;1.73;;
62419;SDS011;48460;51.616;5.426;2023-03-14T08:22:09;6.65;;;1.67;;
62419;SDS011;48460;51.616;5.426;2023-03-14T08:24:44;4.35;;;1.70;;
62419;SDS011;48460;51.616;5.426;2023-03-14T08:27:12;4.50;;;1.60;;
62419;SDS011;48460;51.616;5.426;2023-03-14T08:30:01;6.28;;;1.50;;
62419;SDS011;48460;51.616;5.426;2023-03-14T08:32:31;3.83;;;1.60;;
62419;SDS011;48460;51.616;5.426;2023-03-14T08:35:06;5.10;;;1.80;;
62419;SDS011;48460;51.616;5.426;2023-03-14T08:37:35;4.88;;;1.85;;
62419;SDS011;48460;51.616;5.426;2023-03-14T08:40:11;5.38;;;1.83;;
62419;SDS011;48460;51.616;5.426;2023-03-14T08:42:41;7.93;;;2.00;;
62419;SDS011;48460;51.616;5.426;2023-03-14T08:45:16;6.85;;;2.08;;
62419;SDS011;48460;51.616;5.426;2023-03-14T08:47:58;5.00;;;2.10;;
62419;SDS011;48460;51.616;5.426;2023-03-14T08:50:37;9.60;;;2.30;;
62419;SDS011;48460;51.616;5.426;2023-03-14T08:53:03;4.85;;;2.10;;
62419;SDS011;48460;51.616;5.426;2023-03-14T08:55:29;3.47;;;1.50;;
62419;SDS011;48460;51.616;5.426;2023-03-14T08:58:07;9.45;;;1.90;;
62419;SDS011;48460;51.616;5.426;2023-03-14T09:00:39;3.92;;;1.48;;
62419;SDS011;48460;51.616;5.426;2023-03-14T09:03:08;6.60;;;1.77;;
62419;SDS011;48460;51.616;5.426;2023-03-14T09:05:38;7.82;;;1.80;;
62419;SDS011;48460;51.616;5.426;2023-03-14T09:08:04;6.15;;;1.80;;
62419;SDS011;48460;51.616;5.426;2023-03-14T09:10:32;5.15;;;2.10;;
62419;SDS011;48460;51.616;5.426;2023-03-14T09:13:01;3.65;;;1.58;;
62419;SDS011;48460;51.616;5.426;2023-03-14T09:15:31;2.55;;;1.48;;
62419;SDS011;48460;51.616;5.426;2023-03-14T09:18:09;7.15;;;1.70;;
62419;SDS011;48460;51.616;5.426;2023-03-14T09:20:35;6.30;;;1.60;;
62419;SDS011;48460;51.616;5.426;2023-03-14T09:23:07;3.38;;;1.65;;
62419;SDS011;48460;51.616;5.426;2023-03-14T09:25:35;2.92;;;1.30;;
62419;SDS011;48460;51.616;5.426;2023-03-14T09:28:06;4.00;;;1.50;;
62419;SDS011;48460;51.616;5.426;2023-03-14T09:31:12;2.55;;;1.58;;
62419;SDS011;48460;51.616;5.426;2023-03-14T09:33:40;1.35;;;0.93;;
62419;SDS011;48460;51.616;5.426;2023-03-14T09:36:12;4.68;;;1.30;;
62419;SDS011;48460;51.616;5.426;2023-03-14T09:38:40;4.57;;;1.50;;
62419;SDS011;48460;51.616;5.426;2023-03-14T09:41:23;2.72;;;1.42;;
62419;SDS011;48460;51.616;5.426;2023-03-14T09:44:10;5.72;;;1.27;;
62419;SDS011;48460;51.616;5.426;2023-03-14T09:46:43;5.90;;;1.20;;
62419;SDS011;48460;51.616;5.426;2023-03-14T09:49:17;2.40;;;0.98;;
62419;SDS011;48460;51.616;5.426;2023-03-14T09:55:18;4.53;;;0.98;;
62419;SDS011;48460;51.616;5.426;2023-03-14T09:57:49;3.22;;;1.25;;
62419;SDS011;48460;51.616;5.426;2023-03-14T10:00:26;5.57;;;1.60;;
62419;SDS011;48460;51.616;5.426;2023-03-14T10:03:00;4.50;;;1.38;;
62419;SDS011;48460;51.616;5.426;2023-03-14T10:05:53;3.22;;;1.17;;
62419;SDS011;48460;51.616;5.426;2023-03-14T10:08:26;5.97;;;2.15;;
62419;SDS011;48460;51.616;5.426;2023-03-14T10:10:52;7.13;;;1.70;;
62419;SDS011;48460;51.616;5.426;2023-03-14T10:13:30;8.95;;;1.83;;
62419;SDS011;48460;51.616;5.426;2023-03-14T10:16:04;10.38;;;2.10;;
62419;SDS011;48460;51.616;5.426;2023-03-14T10:18:35;4.75;;;1.38;;
62419;SDS011;48460;51.616;5.426;2023-03-14T10:21:16;9.10;;;2.05;;
62419;SDS011;48460;51.616;5.426;2023-03-14T10:26:40;9.00;;;2.10;;
62419;SDS011;48460;51.616;5.426;2023-03-14T10:29:10;7.68;;;1.70;;
62419;SDS011;48460;51.616;5.426;2023-03-14T10:31:49;11.82;;;2.20;;
62419;SDS011;48460;51.616;5.426;2023-03-14T10:34:35;7.03;;;1.65;;
62419;SDS011;48460;51.616;5.426;2023-03-14T10:39:46;9.45;;;2.10;;
62419;SDS011;48460;51.616;5.426;2023-03-14T10:45:23;10.27;;;2.30;;
62419;SDS011;48460;51.616;5.426;2023-03-14T10:47:57;21.05;;;3.25;;
62419;SDS011;48460;51.616;5.426;2023-03-14T10:50:31;11.10;;;2.22;;
62419;SDS011;48460;51.616;5.426;2023-03-14T10:53:03;13.80;;;2.70;;
62419;SDS011;48460;51.616;5.426;2023-03-14T10:55:41;15.15;;;3.17;;
62419;SDS011;48460;51.616;5.426;2023-03-14T11:04:43;13.27;;;2.45;;
62419;SDS011;48460;51.616;5.426;2023-03-14T11:07:23;16.88;;;2.72;;
62419;SDS011;48460;51.616;5.426;2023-03-14T11:20:59;16.90;;;2.70;;
62419;SDS011;48460;51.616;5.426;2023-03-14T11:26:40;18.20;;;3.27;;
62419;SDS011;48460;51.616;5.426;2023-03-14T11:29:40;19.30;;;2.75;;
62419;SDS011;48460;51.616;5.426;2023-03-14T11:35:33;10.77;;;3.00;;
62419;SDS011;48460;51.616;5.426;2023-03-14T11:40:46;12.25;;;2.72;;
62419;SDS011;48460;51.616;5.426;2023-03-14T11:45:52;18.38;;;2.90;;
62419;SDS011;48460;51.616;5.426;2023-03-14T11:51:36;19.15;;;2.83;;
62419;SDS011;48460;51.616;5.426;2023-03-14T11:57:02;15.05;;;3.30;;
62419;SDS011;48460;51.616;5.426;2023-03-14T11:59:46;17.50;;;2.83;;
62419;SDS011;48460;51.616;5.426;2023-03-14T12:02:22;16.13;;;2.80;;
62419;SDS011;48460;51.616;5.426;2023-03-14T12:10:37;19.08;;;2.70;;
62419;SDS011;48460;51.616;5.426;2023-03-14T12:13:09;12.88;;;2.35;;
62419;SDS011;48460;51.616;5.426;2023-03-14T12:15:40;13.77;;;2.70;;
62419;SDS011;48460;51.616;5.426;2023-03-14T12:18:36;22.10;;;3.13;;
62419;SDS011;48460;51.616;5.426;2023-03-14T12:21:10;14.52;;;2.47;;
62419;SDS011;48460;51.616;5.426;2023-03-14T12:23:51;15.52;;;2.38;;
62419;SDS011;48460;51.616;5.426;2023-03-14T12:26:24;20.85;;;3.10;;
62419;SDS011;48460;51.616;5.426;2023-03-14T12:45:01;20.15;;;3.45;;
62419;SDS011;48460;51.616;5.426;2023-03-14T12:47:56;14.15;;;2.58;;
62419;SDS011;48460;51.616;5.426;2023-03-14T12:50:33;18.20;;;3.10;;
62419;SDS011;48460;51.616;5.426;2023-03-14T12:53:10;19.65;;;3.17;;
62419;SDS011;48460;51.616;5.426;2023-03-14T13:04:18;14.18;;;2.30;;
62419;SDS011;48460;51.616;5.426;2023-03-14T13:06:58;11.27;;;2.60;;
62419;SDS011;48460;51.616;5.426;2023-03-14T13:12:11;13.10;;;2.75;;
62419;SDS011;48460;51.616;5.426;2023-03-14T13:14:47;13.85;;;2.47;;
62419;SDS011;48460;51.616;5.426;2023-03-14T13:17:15;10.10;;;2.50;;
62419;SDS011;48460;51.616;5.426;2023-03-14T13:19:49;12.00;;;2.35;;
62419;SDS011;48460;51.616;5.426;2023-03-14T13:22:22;10.45;;;2.80;;
62419;SDS011;48460;51.616;5.426;2023-03-14T13:25:09;11.13;;;1.95;;
62419;SDS011;48460;51.616;5.426;2023-03-14T13:33:04;11.95;;;2.38;;
62419;SDS011;48460;51.616;5.426;2023-03-14T13:35:41;10.55;;;2.30;;
62419;SDS011;48460;51.616;5.426;2023-03-14T13:43:39;10.20;;;2.30;;
62419;SDS011;48460;51.616;5.426;2023-03-14T13:46:16;13.45;;;2.50;;
62419;SDS011;48460;51.616;5.426;2023-03-14T13:49:03;14.30;;;2.65;;
62419;SDS011;48460;51.616;5.426;2023-03-14T13:51:36;8.25;;;2.13;;
62419;SDS011;48460;51.616;5.426;2023-03-14T13:54:11;13.88;;;2.45;;
62419;SDS011;48460;51.616;5.426;2023-03-14T13:56:58;11.35;;;2.60;;
62419;SDS011;48460;51.616;5.426;2023-03-14T13:59:29;10.77;;;2.20;;
62419;SDS011;48460;51.616;5.426;2023-03-14T14:01:59;6.43;;;2.10;;
62419;SDS011;48460;51.616;5.426;2023-03-14T14:04:28;14.73;;;2.85;;
62419;SDS011;48460;51.616;5.426;2023-03-14T14:07:00;16.58;;;2.90;;
62419;SDS011;48460;51.616;5.426;2023-03-14T14:09:38;9.00;;;2.20;;
62419;SDS011;48460;51.616;5.426;2023-03-14T14:12:10;8.23;;;2.47;;
62419;SDS011;48460;51.616;5.426;2023-03-14T14:17:34;8.25;;;2.25;;
62419;SDS011;48460;51.616;5.426;2023-03-14T14:20:07;9.73;;;2.05;;
62419;SDS011;48460;51.616;5.426;2023-03-14T14:22:43;7.22;;;2.13;;
62419;SDS011;48460;51.616;5.426;2023-03-14T14:25:17;9.45;;;2.58;;
62419;SDS011;48460;51.616;5.426;2023-03-14T14:27:48;10.45;;;2.45;;
62419;SDS011;48460;51.616;5.426;2023-03-14T14:30:27;15.40;;;2.50;;
62419;SDS011;48460;51.616;5.426;2023-03-14T14:35:59;16.02;;;2.72;;
62419;SDS011;48460;51.616;5.426;2023-03-14T14:38:28;7.43;;;1.75;;
62419;SDS011;48460;51.616;5.426;2023-03-14T14:40:58;9.75;;;2.20;;
62419;SDS011;48460;51.616;5.426;2023-03-14T14:46:07;13.30;;;2.40;;
62419;SDS011;48460;51.616;5.426;2023-03-14T14:48:44;10.75;;;2.20;;
62419;SDS011;48460;51.616;5.426;2023-03-14T14:51:25;9.13;;;1.88;;
62419;SDS011;48460;51.616;5.426;2023-03-14T14:54:18;10.63;;;1.98;;
62419;SDS011;48460;51.616;5.426;2023-03-14T14:57:05;14.45;;;2.55;;
62419;SDS011;48460;51.616;5.426;2023-03-14T14:59:42;12.30;;;2.15;;
62419;SDS011;48460;51.616;5.426;2023-03-14T15:02:35;7.97;;;2.38;;
62419;SDS011;48460;51.616;5.426;2023-03-14T15:05:02;15.38;;;2.78;;
62419;SDS011;48460;51.616;5.426;2023-03-14T15:07:33;13.85;;;2.55;;
62419;SDS011;48460;51.616;5.426;2023-03-14T15:10:01;12.13;;;2.40;;
62419;SDS011;48460;51.616;5.426;2023-03-14T15:12:29;9.35;;;2.13;;
62419;SDS011;48460;51.616;5.426;2023-03-14T15:14:55;12.57;;;2.42;;
62419;SDS011;48460;51.616;5.426;2023-03-14T15:17:25;11.05;;;2.53;;
62419;SDS011;48460;51.616;5.426;2023-03-14T15:19:51;12.10;;;2.00;;
62419;SDS011;48460;51.616;5.426;2023-03-14T15:22:20;11.98;;;2.30;;
62419;SDS011;48460;51.616;5.426;2023-03-14T15:24:46;11.73;;;2.40;;
62419;SDS011;48460;51.616;5.426;2023-03-14T15:27:17;19.15;;;2.67;;
62419;SDS011;48460;51.616;5.426;2023-03-14T15:29:51;7.03;;;1.88;;
62419;SDS011;48460;51.616;5.426;2023-03-14T15:32:17;7.32;;;2.08;;
62419;SDS011;48460;51.616;5.426;2023-03-14T15:34:43;12.50;;;2.40;;
62419;SDS011;48460;51.616;5.426;2023-03-14T15:37:13;11.45;;;1.83;;
62419;SDS011;48460;51.616;5.426;2023-03-14T15:39:48;10.23;;;1.98;;
62419;SDS011;48460;51.616;5.426;2023-03-14T15:42:24;9.52;;;2.15;;
62419;SDS011;48460;51.616;5.426;2023-03-14T15:45:05;9.10;;;2.10;;
62419;SDS011;48460;51.616;5.426;2023-03-14T15:47:33;13.32;;;2.20;;
62419;SDS011;48460;51.616;5.426;2023-03-14T15:50:04;14.40;;;2.38;;
62419;SDS011;48460;51.616;5.426;2023-03-14T15:52:44;15.02;;;2.10;;
62419;SDS011;48460;51.616;5.426;2023-03-14T15:55:14;10.63;;;2.45;;
62419;SDS011;48460;51.616;5.426;2023-03-14T15:57:41;7.63;;;2.08;;
62419;SDS011;48460;51.616;5.426;2023-03-14T16:00:16;11.60;;;2.40;;
62419;SDS011;48460;51.616;5.426;2023-03-14T16:02:54;10.32;;;2.15;;
62419;SDS011;48460;51.616;5.426;2023-03-14T16:05:30;14.07;;;2.17;;
62419;SDS011;48460;51.616;5.426;2023-03-14T16:07:58;8.40;;;2.22;;
62419;SDS011;48460;51.616;5.426;2023-03-14T16:10:33;14.75;;;2.15;;
62419;SDS011;48460;51.616;5.426;2023-03-14T16:13:03;9.23;;;1.95;;
62419;SDS011;48460;51.616;5.426;2023-03-14T16:15:29;11.02;;;2.20;;
62419;SDS011;48460;51.616;5.426;2023-03-14T16:17:55;12.48;;;2.38;;
62419;SDS011;48460;51.616;5.426;2023-03-14T16:20:31;8.98;;;2.00;;
62419;SDS011;48460;51.616;5.426;2023-03-14T16:22:58;13.77;;;2.70;;
62419;SDS011;48460;51.616;5.426;2023-03-14T16:25:32;15.40;;;2.47;;
62419;SDS011;48460;51.616;5.426;2023-03-14T16:28:00;11.23;;;2.30;;
62419;SDS011;48460;51.616;5.426;2023-03-14T16:30:38;11.00;;;2.00;;
62419;SDS011;48460;51.616;5.426;2023-03-14T16:33:03;5.38;;;1.80;;
62419;SDS011;48460;51.616;5.426;2023-03-14T16:35:34;16.88;;;2.38;;
62419;SDS011;48460;51.616;5.426;2023-03-14T16:38:31;11.85;;;2.40;;
62419;SDS011;48460;51.616;5.426;2023-03-14T16:41:20;9.02;;;1.80;;
62419;SDS011;48460;51.616;5.426;2023-03-14T16:43:59;8.07;;;2.22;;
62419;SDS011;48460;51.616;5.426;2023-03-14T16:46:26;14.23;;;2.00;;
62419;SDS011;48460;51.616;5.426;2023-03-14T16:49:02;14.48;;;2.08;;
62419;SDS011;48460;51.616;5.426;2023-03-14T16:51:33;9.35;;;2.00;;
62419;SDS011;48460;51.616;5.426;2023-03-14T16:54:25;14.43;;;2.10;;
62419;SDS011;48460;51.616;5.426;2023-03-14T16:56:53;12.73;;;2.63;;
62419;SDS011;48460;51.616;5.426;2023-03-14T16:59:28;8.15;;;1.60;;
62419;SDS011;48460;51.616;5.426;2023-03-14T17:02:14;11.70;;;1.88;;
62419;SDS011;48460;51.616;5.426;2023-03-14T17:04:42;9.98;;;2.47;;
62419;SDS011;48460;51.616;5.426;2023-03-14T17:07:10;12.23;;;2.45;;
62419;SDS011;48460;51.616;5.426;2023-03-14T17:09:38;10.38;;;2.08;;
62419;SDS011;48460;51.616;5.426;2023-03-14T17:12:08;12.05;;;2.88;;
62419;SDS011;48460;51.616;5.426;2023-03-14T17:14:37;8.25;;;2.13;;
62419;SDS011;48460;51.616;5.426;2023-03-14T17:17:02;8.95;;;1.88;;
62419;SDS011;48460;51.616;5.426;2023-03-14T17:19:28;11.48;;;1.98;;
62419;SDS011;48460;51.616;5.426;2023-03-14T17:21:56;8.85;;;1.77;;
62419;SDS011;48460;51.616;5.426;2023-03-14T17:24:23;9.65;;;2.30;;
62419;SDS011;48460;51.616;5.426;2023-03-14T17:26:52;9.98;;;2.15;;
62419;SDS011;48460;51.616;5.426;2023-03-14T17:29:17;7.95;;;2.00;;
62419;SDS011;48460;51.616;5.426;2023-03-14T17:31:45;13.20;;;2.40;;
62419;SDS011;48460;51.616;5.426;2023-03-14T23:38:36;5.60;;;1.90;;
62419;SDS011;48460;51.616;5.426;2023-03-14T23:41:01;3.78;;;1.63;;
62419;SDS011;48460;51.616;5.426;2023-03-14T23:43:27;4.93;;;1.60;;